sensor_id;sensor_type;location;lat;lon;timestamp;P1;durP1;ratioP1;P2;durP2;ratioP2
43793;SDS011;29414;44.798;20.366;2022-08-19T00:02:46;11.20;;;4.70;;
43793;SDS011;29414;44.798;20.366;2022-08-19T00:06:47;7.70;;;4.15;;
43793;SDS011;29414;44.798;20.366;2022-08-19T00:10:47;4.97;;;3.92;;
43793;SDS011;29414;44.798;20.366;2022-08-19T00:14:48;5.55;;;4.97;;
43793;SDS011;29414;44.798;20.366;2022-08-19T00:18:48;5.30;;;4.80;;
43793;SDS011;29414;44.798;20.366;2022-08-19T00:22:50;6.38;;;4.30;;
43793;SDS011;29414;44.798;20.366;2022-08-19T00:26:51;5.15;;;4.65;;
43793;SDS011;29414;44.798;20.366;2022-08-19T00:30:52;7.35;;;4.30;;
43793;SDS011;29414;44.798;20.366;2022-08-19T00:34:53;3.83;;;3.40;;
43793;SDS011;29414;44.798;20.366;2022-08-19T00:38:53;7.07;;;4.60;;
43793;SDS011;29414;44.798;20.366;2022-08-19T00:42:53;4.78;;;4.07;;
43793;SDS011;29414;44.798;20.366;2022-08-19T00:46:55;4.70;;;4.15;;
43793;SDS011;29414;44.798;20.366;2022-08-19T00:50:56;5.13;;;4.65;;
43793;SDS011;29414;44.798;20.366;2022-08-19T00:54:57;5.70;;;4.30;;
43793;SDS011;29414;44.798;20.366;2022-08-19T00:58:58;5.03;;;4.63;;
43793;SDS011;29414;44.798;20.366;2022-08-19T01:02:59;5.05;;;4.43;;
43793;SDS011;29414;44.798;20.366;2022-08-19T01:06:59;5.22;;;4.75;;
43793;SDS011;29414;44.798;20.366;2022-08-19T01:11:01;8.02;;;4.25;;
43793;SDS011;29414;44.798;20.366;2022-08-19T01:15:04;6.93;;;5.00;;
43793;SDS011;29414;44.798;20.366;2022-08-19T01:19:24;7.37;;;5.40;;
43793;SDS011;29414;44.798;20.366;2022-08-19T01:23:26;7.55;;;5.45;;
43793;SDS011;29414;44.798;20.366;2022-08-19T01:27:43;5.18;;;4.72;;
43793;SDS011;29414;44.798;20.366;2022-08-19T01:31:44;7.70;;;4.78;;
43793;SDS011;29414;44.798;20.366;2022-08-19T01:35:44;8.70;;;4.55;;
43793;SDS011;29414;44.798;20.366;2022-08-19T01:39:45;6.68;;;4.78;;
43793;SDS011;29414;44.798;20.366;2022-08-19T01:43:46;8.57;;;4.90;;
43793;SDS011;29414;44.798;20.366;2022-08-19T01:47:46;8.43;;;5.68;;
43793;SDS011;29414;44.798;20.366;2022-08-19T01:51:47;8.70;;;5.70;;
43793;SDS011;29414;44.798;20.366;2022-08-19T01:55:47;9.63;;;6.20;;
43793;SDS011;29414;44.798;20.366;2022-08-19T01:59:48;7.25;;;6.07;;
43793;SDS011;29414;44.798;20.366;2022-08-19T02:03:48;8.38;;;6.72;;
43793;SDS011;29414;44.798;20.366;2022-08-19T02:07:49;9.68;;;5.47;;
43793;SDS011;29414;44.798;20.366;2022-08-19T02:11:49;9.25;;;6.53;;
43793;SDS011;29414;44.798;20.366;2022-08-19T02:15:49;9.90;;;6.30;;
43793;SDS011;29414;44.798;20.366;2022-08-19T02:19:50;8.73;;;6.22;;
43793;SDS011;29414;44.798;20.366;2022-08-19T02:23:50;6.38;;;5.35;;
43793;SDS011;29414;44.798;20.366;2022-08-19T02:27:51;12.20;;;6.30;;
43793;SDS011;29414;44.798;20.366;2022-08-19T02:31:51;9.43;;;5.30;;
43793;SDS011;29414;44.798;20.366;2022-08-19T02:35:51;9.75;;;6.03;;
43793;SDS011;29414;44.798;20.366;2022-08-19T02:39:52;12.27;;;6.97;;
43793;SDS011;29414;44.798;20.366;2022-08-19T02:43:53;13.60;;;6.35;;
43793;SDS011;29414;44.798;20.366;2022-08-19T02:47:53;11.98;;;6.78;;
43793;SDS011;29414;44.798;20.366;2022-08-19T02:51:54;17.15;;;6.82;;
43793;SDS011;29414;44.798;20.366;2022-08-19T02:55:55;8.27;;;6.53;;
43793;SDS011;29414;44.798;20.366;2022-08-19T02:59:55;13.32;;;7.10;;
43793;SDS011;29414;44.798;20.366;2022-08-19T03:03:56;9.00;;;6.60;;
43793;SDS011;29414;44.798;20.366;2022-08-19T03:07:56;10.75;;;7.22;;
43793;SDS011;29414;44.798;20.366;2022-08-19T03:11:57;12.68;;;7.03;;
43793;SDS011;29414;44.798;20.366;2022-08-19T03:15:57;13.98;;;7.03;;
43793;SDS011;29414;44.798;20.366;2022-08-19T03:19:57;12.13;;;7.43;;
43793;SDS011;29414;44.798;20.366;2022-08-19T03:23:59;8.68;;;6.03;;
43793;SDS011;29414;44.798;20.366;2022-08-19T03:27:59;14.98;;;6.95;;
43793;SDS011;29414;44.798;20.366;2022-08-19T03:32:00;11.13;;;7.83;;
43793;SDS011;29414;44.798;20.366;2022-08-19T03:36:02;17.50;;;7.60;;
43793;SDS011;29414;44.798;20.366;2022-08-19T03:40:03;13.32;;;7.60;;
43793;SDS011;29414;44.798;20.366;2022-08-19T03:44:03;9.15;;;7.18;;
43793;SDS011;29414;44.798;20.366;2022-08-19T03:48:08;8.55;;;7.25;;
43793;SDS011;29414;44.798;20.366;2022-08-19T03:52:09;11.02;;;6.93;;
43793;SDS011;29414;44.798;20.366;2022-08-19T03:56:09;10.50;;;7.07;;
43793;SDS011;29414;44.798;20.366;2022-08-19T04:00:10;12.05;;;7.18;;
43793;SDS011;29414;44.798;20.366;2022-08-19T04:04:11;11.63;;;6.50;;
43793;SDS011;29414;44.798;20.366;2022-08-19T04:08:11;11.50;;;7.05;;
43793;SDS011;29414;44.798;20.366;2022-08-19T04:12:11;11.27;;;7.60;;
43793;SDS011;29414;44.798;20.366;2022-08-19T04:16:12;11.90;;;7.00;;
43793;SDS011;29414;44.798;20.366;2022-08-19T04:20:12;15.50;;;7.95;;
43793;SDS011;29414;44.798;20.366;2022-08-19T04:24:13;9.68;;;8.00;;
43793;SDS011;29414;44.798;20.366;2022-08-19T04:28:14;11.35;;;7.40;;
43793;SDS011;29414;44.798;20.366;2022-08-19T04:32:14;10.38;;;7.70;;
43793;SDS011;29414;44.798;20.366;2022-08-19T04:36:19;11.05;;;6.60;;
43793;SDS011;29414;44.798;20.366;2022-08-19T04:40:20;7.70;;;6.95;;
43793;SDS011;29414;44.798;20.366;2022-08-19T04:44:39;10.48;;;7.05;;
43793;SDS011;29414;44.798;20.366;2022-08-19T04:48:39;13.50;;;6.33;;
43793;SDS011;29414;44.798;20.366;2022-08-19T04:52:39;10.00;;;7.47;;
43793;SDS011;29414;44.798;20.366;2022-08-19T04:56:43;9.10;;;7.28;;
43793;SDS011;29414;44.798;20.366;2022-08-19T05:00:43;11.07;;;6.88;;
43793;SDS011;29414;44.798;20.366;2022-08-19T05:04:44;9.50;;;6.38;;
43793;SDS011;29414;44.798;20.366;2022-08-19T05:08:44;10.18;;;6.35;;
43793;SDS011;29414;44.798;20.366;2022-08-19T05:12:45;11.52;;;5.97;;
43793;SDS011;29414;44.798;20.366;2022-08-19T05:16:45;9.60;;;5.90;;
43793;SDS011;29414;44.798;20.366;2022-08-19T05:20:45;11.63;;;6.38;;
43793;SDS011;29414;44.798;20.366;2022-08-19T05:25:05;12.15;;;5.85;;
43793;SDS011;29414;44.798;20.366;2022-08-19T05:29:06;8.77;;;4.82;;
43793;SDS011;29414;44.798;20.366;2022-08-19T05:33:07;12.77;;;5.32;;
43793;SDS011;29414;44.798;20.366;2022-08-19T05:37:09;11.13;;;5.80;;
43793;SDS011;29414;44.798;20.366;2022-08-19T05:41:10;8.63;;;5.20;;
43793;SDS011;29414;44.798;20.366;2022-08-19T05:45:10;11.60;;;6.00;;
43793;SDS011;29414;44.798;20.366;2022-08-19T05:49:11;10.18;;;6.03;;
43793;SDS011;29414;44.798;20.366;2022-08-19T05:53:11;11.05;;;5.60;;
43793;SDS011;29414;44.798;20.366;2022-08-19T05:57:12;11.98;;;5.90;;
43793;SDS011;29414;44.798;20.366;2022-08-19T06:01:13;9.70;;;4.97;;
43793;SDS011;29414;44.798;20.366;2022-08-19T06:05:14;9.30;;;5.43;;
43793;SDS011;29414;44.798;20.366;2022-08-19T06:09:14;8.32;;;5.43;;
43793;SDS011;29414;44.798;20.366;2022-08-19T06:13:15;8.15;;;4.90;;
43793;SDS011;29414;44.798;20.366;2022-08-19T06:17:15;10.68;;;4.70;;
43793;SDS011;29414;44.798;20.366;2022-08-19T06:21:15;9.13;;;4.88;;
43793;SDS011;29414;44.798;20.366;2022-08-19T06:25:16;6.70;;;4.13;;
43793;SDS011;29414;44.798;20.366;2022-08-19T06:29:17;9.02;;;3.95;;
43793;SDS011;29414;44.798;20.366;2022-08-19T06:33:18;10.60;;;3.78;;
43793;SDS011;29414;44.798;20.366;2022-08-19T06:37:18;6.05;;;3.60;;
43793;SDS011;29414;44.798;20.366;2022-08-19T06:41:18;8.60;;;3.70;;
43793;SDS011;29414;44.798;20.366;2022-08-19T06:45:19;7.47;;;3.55;;
43793;SDS011;29414;44.798;20.366;2022-08-19T06:49:20;11.20;;;4.40;;
43793;SDS011;29414;44.798;20.366;2022-08-19T06:53:21;14.93;;;4.53;;
43793;SDS011;29414;44.798;20.366;2022-08-19T06:57:21;7.25;;;4.32;;
43793;SDS011;29414;44.798;20.366;2022-08-19T07:01:22;6.97;;;4.05;;
43793;SDS011;29414;44.798;20.366;2022-08-19T07:05:22;9.85;;;4.20;;
43793;SDS011;29414;44.798;20.366;2022-08-19T07:09:22;7.93;;;3.33;;
43793;SDS011;29414;44.798;20.366;2022-08-19T07:13:23;12.63;;;4.35;;
43793;SDS011;29414;44.798;20.366;2022-08-19T07:17:23;10.98;;;3.60;;
43793;SDS011;29414;44.798;20.366;2022-08-19T07:21:25;9.77;;;2.90;;
43793;SDS011;29414;44.798;20.366;2022-08-19T07:25:28;7.82;;;3.28;;
43793;SDS011;29414;44.798;20.366;2022-08-19T07:29:29;5.53;;;3.00;;
43793;SDS011;29414;44.798;20.366;2022-08-19T07:33:30;5.28;;;2.45;;
43793;SDS011;29414;44.798;20.366;2022-08-19T07:37:32;31.60;;;6.55;;
43793;SDS011;29414;44.798;20.366;2022-08-19T07:41:32;21.90;;;4.03;;
43793;SDS011;29414;44.798;20.366;2022-08-19T07:45:35;14.50;;;3.80;;
43793;SDS011;29414;44.798;20.366;2022-08-19T07:49:35;10.50;;;3.60;;
43793;SDS011;29414;44.798;20.366;2022-08-19T07:53:36;8.17;;;3.23;;
43793;SDS011;29414;44.798;20.366;2022-08-19T07:57:36;4.93;;;3.08;;
43793;SDS011;29414;44.798;20.366;2022-08-19T08:01:36;6.30;;;3.35;;
43793;SDS011;29414;44.798;20.366;2022-08-19T08:05:37;6.57;;;2.70;;
43793;SDS011;29414;44.798;20.366;2022-08-19T08:09:56;8.50;;;3.00;;
43793;SDS011;29414;44.798;20.366;2022-08-19T08:13:56;21.67;;;4.27;;
43793;SDS011;29414;44.798;20.366;2022-08-19T08:17:58;7.32;;;2.90;;
43793;SDS011;29414;44.798;20.366;2022-08-19T08:21:59;7.95;;;3.20;;
43793;SDS011;29414;44.798;20.366;2022-08-19T08:25:59;5.63;;;3.15;;
43793;SDS011;29414;44.798;20.366;2022-08-19T08:30:00;10.55;;;3.20;;
43793;SDS011;29414;44.798;20.366;2022-08-19T08:34:00;5.90;;;3.05;;
43793;SDS011;29414;44.798;20.366;2022-08-19T08:38:01;4.70;;;2.72;;
43793;SDS011;29414;44.798;20.366;2022-08-19T08:50:29;13.38;;;3.67;;
43793;SDS011;29414;44.798;20.366;2022-08-19T08:54:39;3.97;;;2.63;;
43793;SDS011;29414;44.798;20.366;2022-08-19T08:59:15;9.13;;;2.90;;
43793;SDS011;29414;44.798;20.366;2022-08-19T09:03:21;4.90;;;2.70;;
43793;SDS011;29414;44.798;20.366;2022-08-19T09:15:43;6.00;;;2.58;;
43793;SDS011;29414;44.798;20.366;2022-08-19T09:19:52;5.90;;;3.30;;
43793;SDS011;29414;44.798;20.366;2022-08-19T09:23:53;6.32;;;2.60;;
43793;SDS011;29414;44.798;20.366;2022-08-19T09:27:53;5.95;;;1.80;;
43793;SDS011;29414;44.798;20.366;2022-08-19T09:31:54;4.13;;;2.45;;
43793;SDS011;29414;44.798;20.366;2022-08-19T09:36:02;7.03;;;2.80;;
43793;SDS011;29414;44.798;20.366;2022-08-19T09:40:03;5.32;;;2.72;;
43793;SDS011;29414;44.798;20.366;2022-08-19T09:44:04;10.50;;;2.85;;
43793;SDS011;29414;44.798;20.366;2022-08-19T09:48:04;5.80;;;2.80;;
43793;SDS011;29414;44.798;20.366;2022-08-19T09:52:08;13.60;;;2.60;;
43793;SDS011;29414;44.798;20.366;2022-08-19T09:56:08;5.57;;;2.47;;
43793;SDS011;29414;44.798;20.366;2022-08-19T10:00:09;4.45;;;2.50;;
43793;SDS011;29414;44.798;20.366;2022-08-19T10:04:10;7.85;;;2.40;;
43793;SDS011;29414;44.798;20.366;2022-08-19T10:08:10;4.78;;;2.67;;
43793;SDS011;29414;44.798;20.366;2022-08-19T10:12:11;5.03;;;2.88;;
43793;SDS011;29414;44.798;20.366;2022-08-19T10:16:16;10.13;;;2.80;;
43793;SDS011;29414;44.798;20.366;2022-08-19T10:20:19;4.18;;;3.28;;
43793;SDS011;29414;44.798;20.366;2022-08-19T10:24:19;5.50;;;3.10;;
43793;SDS011;29414;44.798;20.366;2022-08-19T10:28:20;5.60;;;2.83;;
43793;SDS011;29414;44.798;20.366;2022-08-19T10:32:20;3.95;;;2.65;;
43793;SDS011;29414;44.798;20.366;2022-08-19T10:36:22;10.30;;;2.78;;
43793;SDS011;29414;44.798;20.366;2022-08-19T10:40:23;5.05;;;2.40;;
43793;SDS011;29414;44.798;20.366;2022-08-19T10:44:23;6.82;;;2.65;;
43793;SDS011;29414;44.798;20.366;2022-08-19T10:48:24;5.72;;;2.50;;
43793;SDS011;29414;44.798;20.366;2022-08-19T10:52:24;5.25;;;2.65;;
43793;SDS011;29414;44.798;20.366;2022-08-19T10:56:33;5.15;;;2.65;;
43793;SDS011;29414;44.798;20.366;2022-08-19T11:00:53;9.10;;;2.47;;
43793;SDS011;29414;44.798;20.366;2022-08-19T11:05:00;6.50;;;2.55;;
43793;SDS011;29414;44.798;20.366;2022-08-19T11:09:19;8.52;;;2.53;;
43793;SDS011;29414;44.798;20.366;2022-08-19T11:13:20;39.67;;;4.63;;
43793;SDS011;29414;44.798;20.366;2022-08-19T11:17:21;9.57;;;2.80;;
43793;SDS011;29414;44.798;20.366;2022-08-19T11:21:27;8.73;;;2.45;;
43793;SDS011;29414;44.798;20.366;2022-08-19T11:25:27;36.90;;;4.20;;
43793;SDS011;29414;44.798;20.366;2022-08-19T11:29:28;8.20;;;1.80;;
43793;SDS011;29414;44.798;20.366;2022-08-19T11:33:29;5.38;;;2.15;;
43793;SDS011;29414;44.798;20.366;2022-08-19T11:37:30;12.95;;;1.95;;
43793;SDS011;29414;44.798;20.366;2022-08-19T11:41:30;7.63;;;1.90;;
43793;SDS011;29414;44.798;20.366;2022-08-19T11:45:30;29.80;;;4.17;;
43793;SDS011;29414;44.798;20.366;2022-08-19T11:49:31;8.65;;;2.90;;
43793;SDS011;29414;44.798;20.366;2022-08-19T11:53:32;6.05;;;2.25;;
43793;SDS011;29414;44.798;20.366;2022-08-19T11:57:33;31.65;;;4.05;;
43793;SDS011;29414;44.798;20.366;2022-08-19T12:01:34;9.63;;;2.72;;
43793;SDS011;29414;44.798;20.366;2022-08-19T12:05:36;7.75;;;2.40;;
43793;SDS011;29414;44.798;20.366;2022-08-19T12:09:36;8.43;;;2.17;;
43793;SDS011;29414;44.798;20.366;2022-08-19T12:13:39;3.85;;;1.98;;
43793;SDS011;29414;44.798;20.366;2022-08-19T12:17:40;4.95;;;1.75;;
43793;SDS011;29414;44.798;20.366;2022-08-19T12:21:41;6.95;;;2.20;;
43793;SDS011;29414;44.798;20.366;2022-08-19T12:25:47;7.88;;;2.78;;
43793;SDS011;29414;44.798;20.366;2022-08-19T12:29:49;5.03;;;2.13;;
43793;SDS011;29414;44.798;20.366;2022-08-19T12:33:50;7.50;;;1.87;;
43793;SDS011;29414;44.798;20.366;2022-08-19T12:37:52;9.37;;;2.60;;
43793;SDS011;29414;44.798;20.366;2022-08-19T12:41:53;6.18;;;2.75;;
43793;SDS011;29414;44.798;20.366;2022-08-19T12:45:53;11.93;;;2.75;;
43793;SDS011;29414;44.798;20.366;2022-08-19T12:49:53;8.20;;;2.57;;
43793;SDS011;29414;44.798;20.366;2022-08-19T12:53:54;7.22;;;3.00;;
43793;SDS011;29414;44.798;20.366;2022-08-19T12:57:54;6.33;;;2.33;;
43793;SDS011;29414;44.798;20.366;2022-08-19T13:01:55;7.60;;;2.07;;
43793;SDS011;29414;44.798;20.366;2022-08-19T13:05:55;9.47;;;2.17;;
43793;SDS011;29414;44.798;20.366;2022-08-19T13:09:55;10.75;;;2.03;;
43793;SDS011;29414;44.798;20.366;2022-08-19T13:13:55;6.17;;;2.20;;
43793;SDS011;29414;44.798;20.366;2022-08-19T13:17:57;7.10;;;2.60;;
43793;SDS011;29414;44.798;20.366;2022-08-19T13:21:57;8.60;;;2.42;;
43793;SDS011;29414;44.798;20.366;2022-08-19T13:25:59;16.10;;;3.45;;
43793;SDS011;29414;44.798;20.366;2022-08-19T13:30:00;8.98;;;2.60;;
43793;SDS011;29414;44.798;20.366;2022-08-19T13:34:25;13.52;;;2.85;;
43793;SDS011;29414;44.798;20.366;2022-08-19T13:38:27;11.52;;;3.25;;
43793;SDS011;29414;44.798;20.366;2022-08-19T13:42:27;9.60;;;2.97;;
43793;SDS011;29414;44.798;20.366;2022-08-19T13:46:31;8.68;;;3.70;;
43793;SDS011;29414;44.798;20.366;2022-08-19T13:50:32;10.23;;;3.10;;
43793;SDS011;29414;44.798;20.366;2022-08-19T13:54:32;10.88;;;2.85;;
43793;SDS011;29414;44.798;20.366;2022-08-19T13:58:33;12.70;;;3.78;;
43793;SDS011;29414;44.798;20.366;2022-08-19T14:02:33;13.55;;;3.42;;
43793;SDS011;29414;44.798;20.366;2022-08-19T14:06:33;10.55;;;3.28;;
43793;SDS011;29414;44.798;20.366;2022-08-19T14:10:34;15.80;;;3.78;;
43793;SDS011;29414;44.798;20.366;2022-08-19T14:14:37;13.13;;;2.53;;
43793;SDS011;29414;44.798;20.366;2022-08-19T14:18:38;10.50;;;3.17;;
43793;SDS011;29414;44.798;20.366;2022-08-19T14:22:40;8.55;;;2.95;;
43793;SDS011;29414;44.798;20.366;2022-08-19T14:26:40;13.07;;;4.07;;
43793;SDS011;29414;44.798;20.366;2022-08-19T14:30:41;8.43;;;2.90;;
43793;SDS011;29414;44.798;20.366;2022-08-19T14:34:41;8.45;;;2.85;;
43793;SDS011;29414;44.798;20.366;2022-08-19T14:38:41;8.20;;;2.47;;
43793;SDS011;29414;44.798;20.366;2022-08-19T14:42:42;6.20;;;2.65;;
43793;SDS011;29414;44.798;20.366;2022-08-19T14:46:42;9.40;;;2.97;;
43793;SDS011;29414;44.798;20.366;2022-08-19T14:50:45;16.70;;;3.03;;
43793;SDS011;29414;44.798;20.366;2022-08-19T14:54:45;11.80;;;3.33;;
43793;SDS011;29414;44.798;20.366;2022-08-19T14:58:45;12.57;;;2.87;;
43793;SDS011;29414;44.798;20.366;2022-08-19T15:02:46;13.38;;;3.33;;
43793;SDS011;29414;44.798;20.366;2022-08-19T15:06:46;56.53;;;7.83;;
43793;SDS011;29414;44.798;20.366;2022-08-19T15:10:46;200.68;;;17.95;;
43793;SDS011;29414;44.798;20.366;2022-08-19T15:14:47;55.85;;;8.13;;
43793;SDS011;29414;44.798;20.366;2022-08-19T15:18:51;87.63;;;9.77;;
43793;SDS011;29414;44.798;20.366;2022-08-19T15:22:52;38.83;;;7.22;;
43793;SDS011;29414;44.798;20.366;2022-08-19T15:26:53;20.40;;;4.63;;
43793;SDS011;29414;44.798;20.366;2022-08-19T15:30:55;23.92;;;5.55;;
43793;SDS011;29414;44.798;20.366;2022-08-19T15:34:55;27.87;;;4.03;;
43793;SDS011;29414;44.798;20.366;2022-08-19T15:38:56;32.72;;;5.18;;
43793;SDS011;29414;44.798;20.366;2022-08-19T15:42:56;18.30;;;4.22;;
43793;SDS011;29414;44.798;20.366;2022-08-19T15:46:57;23.80;;;5.00;;
43793;SDS011;29414;44.798;20.366;2022-08-19T15:50:58;23.75;;;3.78;;
43793;SDS011;29414;44.798;20.366;2022-08-19T15:54:58;26.93;;;4.43;;
43793;SDS011;29414;44.798;20.366;2022-08-19T15:58:59;23.40;;;4.68;;
43793;SDS011;29414;44.798;20.366;2022-08-19T16:03:18;16.77;;;3.88;;
43793;SDS011;29414;44.798;20.366;2022-08-19T16:07:37;27.88;;;5.00;;
43793;SDS011;29414;44.798;20.366;2022-08-19T16:11:37;26.50;;;4.70;;
43793;SDS011;29414;44.798;20.366;2022-08-19T16:15:38;22.70;;;4.70;;
43793;SDS011;29414;44.798;20.366;2022-08-19T16:19:40;17.80;;;3.80;;
43793;SDS011;29414;44.798;20.366;2022-08-19T16:23:41;22.33;;;4.00;;
43793;SDS011;29414;44.798;20.366;2022-08-19T16:27:42;22.98;;;4.15;;
43793;SDS011;29414;44.798;20.366;2022-08-19T16:31:43;30.90;;;4.83;;
43793;SDS011;29414;44.798;20.366;2022-08-19T16:35:43;20.92;;;4.47;;
43793;SDS011;29414;44.798;20.366;2022-08-19T16:39:44;24.40;;;4.17;;
43793;SDS011;29414;44.798;20.366;2022-08-19T16:43:44;36.42;;;3.72;;
43793;SDS011;29414;44.798;20.366;2022-08-19T16:47:44;115.35;;;11.85;;
43793;SDS011;29414;44.798;20.366;2022-08-19T16:51:44;193.63;;;18.77;;
43793;SDS011;29414;44.798;20.366;2022-08-19T16:55:45;101.93;;;9.88;;
43793;SDS011;29414;44.798;20.366;2022-08-19T16:59:50;118.15;;;13.65;;
43793;SDS011;29414;44.798;20.366;2022-08-19T17:03:51;61.75;;;6.05;;
43793;SDS011;29414;44.798;20.366;2022-08-19T17:07:52;24.45;;;4.45;;
43793;SDS011;29414;44.798;20.366;2022-08-19T17:11:52;44.42;;;4.75;;
43793;SDS011;29414;44.798;20.366;2022-08-19T17:15:53;70.97;;;7.30;;
43793;SDS011;29414;44.798;20.366;2022-08-19T17:19:53;17.58;;;3.63;;
43793;SDS011;29414;44.798;20.366;2022-08-19T17:23:57;18.37;;;4.67;;
43793;SDS011;29414;44.798;20.366;2022-08-19T17:31:58;15.30;;;4.20;;
43793;SDS011;29414;44.798;20.366;2022-08-19T17:35:58;10.85;;;3.95;;
43793;SDS011;29414;44.798;20.366;2022-08-19T17:40:00;11.75;;;3.70;;
43793;SDS011;29414;44.798;20.366;2022-08-19T17:44:01;9.27;;;3.88;;
43793;SDS011;29414;44.798;20.366;2022-08-19T17:48:03;10.25;;;2.70;;
43793;SDS011;29414;44.798;20.366;2022-08-19T17:52:03;11.80;;;3.80;;
43793;SDS011;29414;44.798;20.366;2022-08-19T17:56:04;13.07;;;3.97;;
43793;SDS011;29414;44.798;20.366;2022-08-19T18:00:05;12.73;;;4.93;;
43793;SDS011;29414;44.798;20.366;2022-08-19T18:04:06;12.07;;;3.90;;
43793;SDS011;29414;44.798;20.366;2022-08-19T18:08:08;15.80;;;4.45;;
43793;SDS011;29414;44.798;20.366;2022-08-19T18:12:12;7.85;;;3.85;;
43793;SDS011;29414;44.798;20.366;2022-08-19T18:16:12;15.93;;;3.88;;
43793;SDS011;29414;44.798;20.366;2022-08-19T18:20:13;12.18;;;3.83;;
43793;SDS011;29414;44.798;20.366;2022-08-19T18:24:14;14.20;;;4.78;;
43793;SDS011;29414;44.798;20.366;2022-08-19T18:28:15;14.80;;;5.15;;
43793;SDS011;29414;44.798;20.366;2022-08-19T18:32:16;16.80;;;5.43;;
43793;SDS011;29414;44.798;20.366;2022-08-19T18:36:16;18.25;;;5.68;;
43793;SDS011;29414;44.798;20.366;2022-08-19T18:40:18;14.88;;;5.25;;
43793;SDS011;29414;44.798;20.366;2022-08-19T18:44:37;15.45;;;6.10;;
43793;SDS011;29414;44.798;20.366;2022-08-19T18:48:56;16.02;;;5.25;;
43793;SDS011;29414;44.798;20.366;2022-08-19T18:53:04;14.65;;;4.78;;
43793;SDS011;29414;44.798;20.366;2022-08-19T18:57:04;12.48;;;4.97;;
43793;SDS011;29414;44.798;20.366;2022-08-19T19:01:07;18.83;;;5.40;;
43793;SDS011;29414;44.798;20.366;2022-08-19T19:05:11;15.98;;;5.40;;
43793;SDS011;29414;44.798;20.366;2022-08-19T19:09:13;15.98;;;5.00;;
43793;SDS011;29414;44.798;20.366;2022-08-19T19:13:13;15.80;;;4.95;;
43793;SDS011;29414;44.798;20.366;2022-08-19T19:17:15;17.48;;;5.57;;
43793;SDS011;29414;44.798;20.366;2022-08-19T19:21:15;18.55;;;5.28;;
43793;SDS011;29414;44.798;20.366;2022-08-19T19:25:16;18.25;;;5.45;;
43793;SDS011;29414;44.798;20.366;2022-08-19T19:29:19;15.80;;;4.85;;
43793;SDS011;29414;44.798;20.366;2022-08-19T19:33:19;17.42;;;5.72;;
43793;SDS011;29414;44.798;20.366;2022-08-19T19:37:19;15.00;;;5.97;;
43793;SDS011;29414;44.798;20.366;2022-08-19T19:41:22;14.70;;;5.97;;
43793;SDS011;29414;44.798;20.366;2022-08-19T19:45:23;12.40;;;5.47;;
43793;SDS011;29414;44.798;20.366;2022-08-19T19:49:23;13.35;;;5.25;;
43793;SDS011;29414;44.798;20.366;2022-08-19T19:53:24;14.55;;;4.45;;
43793;SDS011;29414;44.798;20.366;2022-08-19T19:57:26;20.15;;;5.78;;
43793;SDS011;29414;44.798;20.366;2022-08-19T20:01:28;15.65;;;5.38;;
43793;SDS011;29414;44.798;20.366;2022-08-19T20:05:29;13.85;;;5.78;;
43793;SDS011;29414;44.798;20.366;2022-08-19T20:09:29;15.15;;;4.68;;
43793;SDS011;29414;44.798;20.366;2022-08-19T20:13:29;13.73;;;5.47;;
43793;SDS011;29414;44.798;20.366;2022-08-19T20:17:30;11.95;;;5.75;;
43793;SDS011;29414;44.798;20.366;2022-08-19T20:21:32;18.05;;;5.80;;
43793;SDS011;29414;44.798;20.366;2022-08-19T20:25:32;12.43;;;4.70;;
43793;SDS011;29414;44.798;20.366;2022-08-19T20:29:33;13.40;;;5.18;;
43793;SDS011;29414;44.798;20.366;2022-08-19T20:33:33;12.55;;;6.20;;
43793;SDS011;29414;44.798;20.366;2022-08-19T20:37:33;14.18;;;5.18;;
43793;SDS011;29414;44.798;20.366;2022-08-19T20:41:34;13.50;;;5.43;;
43793;SDS011;29414;44.798;20.366;2022-08-19T20:45:34;15.73;;;5.20;;
43793;SDS011;29414;44.798;20.366;2022-08-19T20:49:36;10.63;;;5.30;;
43793;SDS011;29414;44.798;20.366;2022-08-19T20:53:37;13.30;;;4.68;;
43793;SDS011;29414;44.798;20.366;2022-08-19T20:57:37;10.43;;;4.63;;
43793;SDS011;29414;44.798;20.366;2022-08-19T21:01:37;14.82;;;3.70;;
43793;SDS011;29414;44.798;20.366;2022-08-19T21:05:38;14.15;;;4.30;;
43793;SDS011;29414;44.798;20.366;2022-08-19T21:09:38;10.93;;;4.40;;
43793;SDS011;29414;44.798;20.366;2022-08-19T21:13:39;15.00;;;4.60;;
43793;SDS011;29414;44.798;20.366;2022-08-19T21:17:39;11.98;;;4.47;;
43793;SDS011;29414;44.798;20.366;2022-08-19T21:21:39;12.13;;;4.75;;
43793;SDS011;29414;44.798;20.366;2022-08-19T21:25:40;8.93;;;4.57;;
43793;SDS011;29414;44.798;20.366;2022-08-19T21:29:40;15.35;;;4.78;;
43793;SDS011;29414;44.798;20.366;2022-08-19T21:33:41;12.05;;;4.78;;
43793;SDS011;29414;44.798;20.366;2022-08-19T21:37:41;18.47;;;5.00;;
43793;SDS011;29414;44.798;20.366;2022-08-19T21:41:41;11.97;;;4.83;;
43793;SDS011;29414;44.798;20.366;2022-08-19T21:45:41;8.90;;;4.03;;
43793;SDS011;29414;44.798;20.366;2022-08-19T21:49:42;11.38;;;4.75;;
43793;SDS011;29414;44.798;20.366;2022-08-19T21:53:42;14.02;;;4.53;;
43793;SDS011;29414;44.798;20.366;2022-08-19T21:57:43;11.57;;;4.03;;
43793;SDS011;29414;44.798;20.366;2022-08-19T22:01:43;15.23;;;4.50;;
43793;SDS011;29414;44.798;20.366;2022-08-19T22:05:44;13.50;;;4.50;;
43793;SDS011;29414;44.798;20.366;2022-08-19T22:09:45;13.00;;;4.10;;
43793;SDS011;29414;44.798;20.366;2022-08-19T22:13:45;13.73;;;4.15;;
43793;SDS011;29414;44.798;20.366;2022-08-19T22:17:46;14.57;;;5.07;;
43793;SDS011;29414;44.798;20.366;2022-08-19T22:21:46;11.55;;;3.90;;
43793;SDS011;29414;44.798;20.366;2022-08-19T22:25:47;17.35;;;4.00;;
43793;SDS011;29414;44.798;20.366;2022-08-19T22:29:47;10.18;;;4.20;;
43793;SDS011;29414;44.798;20.366;2022-08-19T22:33:47;20.27;;;6.07;;
43793;SDS011;29414;44.798;20.366;2022-08-19T22:37:48;13.90;;;4.55;;
43793;SDS011;29414;44.798;20.366;2022-08-19T22:41:50;15.43;;;4.47;;
43793;SDS011;29414;44.798;20.366;2022-08-19T22:45:51;21.73;;;5.05;;
43793;SDS011;29414;44.798;20.366;2022-08-19T22:49:52;15.75;;;5.18;;
43793;SDS011;29414;44.798;20.366;2022-08-19T22:53:52;15.93;;;4.47;;
43793;SDS011;29414;44.798;20.366;2022-08-19T22:57:53;10.10;;;3.93;;
43793;SDS011;29414;44.798;20.366;2022-08-19T23:01:53;16.98;;;3.80;;
43793;SDS011;29414;44.798;20.366;2022-08-19T23:05:53;15.43;;;4.53;;
43793;SDS011;29414;44.798;20.366;2022-08-19T23:09:55;19.17;;;5.60;;
43793;SDS011;29414;44.798;20.366;2022-08-19T23:13:55;15.27;;;4.75;;
43793;SDS011;29414;44.798;20.366;2022-08-19T23:17:57;16.10;;;4.33;;
43793;SDS011;29414;44.798;20.366;2022-08-19T23:21:57;14.25;;;4.53;;
43793;SDS011;29414;44.798;20.366;2022-08-19T23:25:58;15.30;;;4.80;;
43793;SDS011;29414;44.798;20.366;2022-08-19T23:29:58;20.25;;;4.63;;
43793;SDS011;29414;44.798;20.366;2022-08-19T23:34:17;13.85;;;4.80;;
43793;SDS011;29414;44.798;20.366;2022-08-19T23:38:17;18.25;;;4.13;;
43793;SDS011;29414;44.798;20.366;2022-08-19T23:42:18;11.82;;;4.28;;
43793;SDS011;29414;44.798;20.366;2022-08-19T23:46:19;10.35;;;4.47;;
43793;SDS011;29414;44.798;20.366;2022-08-19T23:50:20;23.30;;;4.63;;
43793;SDS011;29414;44.798;20.366;2022-08-19T23:54:20;14.70;;;4.30;;
43793;SDS011;29414;44.798;20.366;2022-08-19T23:58:21;17.67;;;4.88;;
